コモドロリバダビア の空港の天気 - METARとTAF

Comodoro Rivadavia Aerodrome ( SAVC / CRD ) - アルゼンチン チュブ州コモドロリバダビア
飛行場実況気象(Metar)
観測時間06/24 06:00 ART (06/24 09:00 UTC)
風向・風速西北西 9m/s
視程10km以上
天気現象
なし
気温10℃
湿度58%
気圧999hPa
METARSAVC 240900Z 29018KT CAVOK 10/02 Q0999
過去の天気等 Google飛行場航空写真 Wunderground天気予報

過去48時間のMETAR

飛行場予報(TAF)
発表時間: 6/24 02:00 ART (6/24 05:00 UTC)
予報対象時間: 24日3時 ART ~ 25日3時 ART
風向・風速西北西 10m/s 瞬間風速 15m/s
視程10km以上
なし
24日11時 ART ~ 24日13時 ART に徐々に
風向・風速南南西 10m/s
視程10km以上
少しの雲 雲底高度 610m
全天の4割程度の雲 雲底高度 910m
全天の8割程度の雲 雲底高度 2740m
24日21時 ART ~ 24日23時 ART に徐々に
風向・風速西 10m/s 瞬間風速 15m/s
視程10km以上
なし
TAF SAVC 240500Z 2406/2506 29020G30KT CAVOK TX08/2415Z TN04/2506Z
BECMG 2414/2416 20020KT 9999 FEW020 SCT030 BKN090
BECMG 2500/2502 27020G30KT CAVOK